CheckWX is a tool to help pilots better visualize weather data.  It is not intended as a substitute for an official pre-flight weather briefing.

20:33:22 UTC

KBDU METAR
Boulder Municipal Airport
Boulder, Colorado, USA
Current

21 mins ago

KBDU 202012Z AUTO 36008KT 10SM CLR 10/00 A2973 RMK AO2
Observed
Nov-20 @ 20:12 UTC
Wind
  • 360° at 8 KTS
Visibility
10 SM
Flight Rules
VFR
Cloud Levels
  • Clear skies
Temperature
10°C / 50°F
Dewpoint
C / 32°F
Humidity
50%
Altimeter
29.73" Hg
Pressure
1006.82 hPa
Previous

45 mins ago

KBDU 201948Z AUTO 02008KT 10SM CLR 10/00 A2973 RMK AO2
Observed
Nov-20 @ 19:48 UTC
Wind
  • 020° at 8 KTS
Visibility
10 SM
Flight Rules
VFR
Cloud Levels
  • Clear skies
Temperature
10°C / 50°F
Dewpoint
C / 32°F
Humidity
50%
Altimeter
29.73" Hg
Pressure
1006.82 hPa
Previous

1 hour ago

KBDU 201930Z AUTO 00000KT 10SM SCT100 10/00 A2973 RMK AO2
Observed
Nov-20 @ 19:30 UTC
Visibility
10 SM
Flight Rules
VFR
Cloud Levels
  • Scattered at 10,000' AGL
Temperature
10°C / 50°F
Dewpoint
C / 32°F
Humidity
50%
Altimeter
29.73" Hg
Pressure
1006.82 hPa